Главная страница
METAR-TAF:

METAR-TAF

Аэропорты :

Fort Resolution, Северо-Западные Территории, Канада

широта: 61-11N, долгота: 113-41W, высота над уровнем моря: 164 м

Текущие метеонаблюдения

Эта сводка был подготовлена 5 часа и 29 минут назад, в 23:00 UTC
Ветер 4 Узел от юго-юго-восточный
Температура -16°C
Влажность 78%
Давление 1014 hPa
Видимость: 24.1 км
небольшая облачность на высоте 3000 фута
Рассеянная облачность на высоте 27000 фута

METAR: CYFR 222300Z 16004KT 15SM FEW030 BKN270 M16/M19 A2994 RMK SC1CS6 SC TR /TR/67/ SNW CVR/MEDIUM PACK LAST STFD OBS/NEXT231500Z SLP161

Время: 21:29 (04:29 UTC)


TAF: отсутствует

Метеонаблюдения и прогнозы для более 4000 аэропортов (сводки METAR и TAF).

Имеющиеся станции представлены на карте желтыми и красными точками.

Чтобы увидеть название станции, наведите на нее мышь.

Затем щелкните, чтобы увидеть метеонаблюдения и метеопрогнозы.

Управление картой: чтобы увеличить масштаб, щелкните зеленые кнопки с черным крестиком; чтобы уменьшить масштаб, щелкните зеленую кнопку с тире; для просмотра соседних карт щелкайте зеленые стрелки.


METAR-TAF: